Time;durP1;ratioP1;P1;durP2;ratioP2;P2;SDS_P1;SDS_P2;PMS_P1;PMS_P2;Temp;Humidity;BMP_temperature;BMP_pressure;BME280_temperature;BME280_humidity;BME280_pressure;Samples;Min_cycle;Max_cycle;Signal;HPM_P1;HPM_P2
2022/06/20 00:00:11;;;;;;;4.00;0.82;;;;;;;;;;5116351;27;20038;-76
2022/06/20 00:02:42;;;;;;;5.20;1.05;;;;;;;;;;5099513;28;20479;-74
2022/06/20 00:05:14;;;;;;;3.95;1.00;;;;;;;;;;5103765;28;20023;-77
2022/06/20 00:07:39;;;;;;;4.78;0.93;;;;;;;;;;5101773;27;20097;-75
2022/06/20 00:10:05;;;;;;;3.33;0.80;;;;;;;;;;5103307;27;20081;-75
2022/06/20 00:12:30;;;;;;;3.78;1.00;;;;;;;;;;5101155;27;20118;-75
2022/06/20 00:14:59;;;;;;;3.42;1.00;;;;;;;;;;5102299;27;20027;-74
2022/06/20 00:17:25;;;;;;;5.38;1.23;;;;;;;;;;5099360;27;20147;-74
2022/06/20 00:19:51;;;;;;;4.35;1.13;;;;;;;;;;5099898;27;20030;-76
2022/06/20 00:22:16;;;;;;;3.10;1.00;;;;;;;;;;5098376;27;20040;-74
2022/06/20 00:24:42;;;;;;;4.30;1.10;;;;;;;;;;5100188;27;20024;-75
2022/06/20 00:27:07;;;;;;;4.00;1.10;;;;;;;;;;5099760;27;20411;-75
2022/06/20 00:29:35;;;;;;;3.45;0.90;;;;;;;;;;5100377;27;20106;-76
2022/06/20 00:32:01;;;;;;;2.05;0.70;;;;;;;;;;5100872;27;20023;-75
2022/06/20 00:34:26;;;;;;;5.30;1.10;;;;;;;;;;5098087;28;20035;-75
2022/06/20 00:36:52;;;;;;;5.10;1.27;;;;;;;;;;5104121;28;20433;-75
2022/06/20 00:39:19;;;;;;;2.80;0.88;;;;;;;;;;5092207;27;20051;-76
2022/06/20 00:41:45;;;;;;;3.70;0.80;;;;;;;;;;5100278;28;20046;-75
2022/06/20 00:44:14;;;;;;;5.75;1.20;;;;;;;;;;5097317;28;20078;-74
2022/06/20 00:46:43;;;;;;;2.75;0.80;;;;;;;;;;5100398;28;20030;-75
2022/06/20 00:49:34;;;;;;;2.53;0.90;;;;;;;;;;5101259;28;20074;-76
2022/06/20 00:52:07;;;;;;;2.78;0.70;;;;;;;;;;5097171;28;20053;-76
2022/06/20 00:54:36;;;;;;;3.60;0.93;;;;;;;;;;5097859;27;20690;-75
2022/06/20 00:57:27;;;;;;;3.35;1.10;;;;;;;;;;5104241;28;20039;-76
2022/06/20 01:00:00;;;;;;;3.67;0.90;;;;;;;;;;5096666;28;20467;-74
2022/06/20 01:02:34;;;;;;;3.15;1.05;;;;;;;;;;5101601;28;20500;-74
2022/06/20 01:05:02;;;;;;;3.55;0.85;;;;;;;;;;5098608;28;20678;-75
2022/06/20 01:07:53;;;;;;;4.07;0.88;;;;;;;;;;5097797;28;20118;-76
2022/06/20 01:10:19;;;;;;;3.35;1.08;;;;;;;;;;5100869;28;20019;-73
2022/06/20 01:12:54;;;;;;;3.25;0.95;;;;;;;;;;5099065;28;20100;-75
2022/06/20 01:15:26;;;;;;;2.33;0.80;;;;;;;;;;5100419;28;20020;-76
2022/06/20 01:17:53;;;;;;;4.40;1.00;;;;;;;;;;5113585;28;20053;-76
2022/06/20 01:20:31;;;;;;;3.03;0.80;;;;;;;;;;5100692;28;20038;-76
2022/06/20 01:23:27;;;;;;;3.92;1.10;;;;;;;;;;5099012;28;20030;-76
2022/06/20 01:26:05;;;;;;;2.72;0.98;;;;;;;;;;5093304;28;20031;-76
2022/06/20 01:28:35;;;;;;;3.75;1.00;;;;;;;;;;5105459;28;20024;-75
2022/06/20 01:31:01;;;;;;;2.88;1.10;;;;;;;;;;5099311;28;20428;-74
2022/06/20 01:33:27;;;;;;;6.13;1.30;;;;;;;;;;5104616;28;20083;-73
2022/06/20 01:38:39;;;;;;;3.70;1.00;;;;;;;;;;5102363;28;20133;-75
2022/06/20 01:43:49;;;;;;;3.10;1.00;;;;;;;;;;5104749;28;20560;-74
2022/06/20 01:46:16;;;;;;;2.85;1.20;;;;;;;;;;5102653;28;20031;-76
2022/06/20 01:48:49;;;;;;;4.57;1.20;;;;;;;;;;5099100;28;20023;-76
2022/06/20 01:51:22;;;;;;;3.28;1.08;;;;;;;;;;5104141;27;20015;-76
2022/06/20 01:53:50;;;;;;;3.50;1.15;;;;;;;;;;5104094;27;20390;-75
2022/06/20 01:56:17;;;;;;;5.22;1.40;;;;;;;;;;5100795;27;20154;-76
2022/06/20 01:58:49;;;;;;;3.92;0.95;;;;;;;;;;5101473;27;20029;-76
2022/06/20 02:01:15;;;;;;;3.45;1.30;;;;;;;;;;5090315;28;20380;-74
2022/06/20 02:03:43;;;;;;;4.00;1.20;;;;;;;;;;5101616;27;20023;-75
2022/06/20 02:06:10;;;;;;;3.03;1.13;;;;;;;;;;5094339;27;20617;-76
2022/06/20 02:08:38;;;;;;;3.17;1.17;;;;;;;;;;5094067;27;20027;-75
2022/06/20 02:11:04;;;;;;;5.32;1.00;;;;;;;;;;5094033;27;20030;-75
2022/06/20 02:13:33;;;;;;;4.80;1.20;;;;;;;;;;5096042;28;20031;-75
2022/06/20 02:16:03;;;;;;;3.85;1.15;;;;;;;;;;5093972;27;20039;-75
2022/06/20 02:18:32;;;;;;;3.22;1.20;;;;;;;;;;5096178;27;20066;-75
2022/06/20 02:21:08;;;;;;;4.10;1.10;;;;;;;;;;5097103;27;20562;-76
2022/06/20 02:23:36;;;;;;;2.92;1.10;;;;;;;;;;5093269;27;20147;-76
2022/06/20 02:26:05;;;;;;;2.78;1.45;;;;;;;;;;5098625;28;20066;-76
2022/06/20 02:28:43;;;;;;;6.13;1.50;;;;;;;;;;5096931;27;20364;-74
2022/06/20 02:31:09;;;;;;;2.85;1.00;;;;;;;;;;5103028;28;20020;-75
2022/06/20 02:33:35;;;;;;;4.47;1.25;;;;;;;;;;5101565;27;20043;-75
2022/06/20 02:36:04;;;;;;;3.40;1.30;;;;;;;;;;5109014;27;20035;-73
2022/06/20 02:38:29;;;;;;;3.83;1.23;;;;;;;;;;5100522;27;20043;-75
2022/06/20 02:40:57;;;;;;;3.10;0.90;;;;;;;;;;5100022;27;20028;-74
2022/06/20 02:43:29;;;;;;;3.13;0.98;;;;;;;;;;5104014;27;20031;-74
2022/06/20 02:45:56;;;;;;;3.30;1.10;;;;;;;;;;5107055;27;20023;-75
2022/06/20 02:48:24;;;;;;;1.80;0.93;;;;;;;;;;5100084;28;20416;-75
2022/06/20 02:51:04;;;;;;;2.63;1.08;;;;;;;;;;5104250;28;20015;-77
2022/06/20 02:53:43;;;;;;;3.28;0.88;;;;;;;;;;5100998;27;20024;-76
2022/06/20 02:56:14;;;;;;;4.63;0.93;;;;;;;;;;5103886;27;20019;-76
2022/06/20 02:58:44;;;;;;;3.45;0.98;;;;;;;;;;5096035;27;20024;-76
2022/06/20 03:01:14;;;;;;;6.43;1.40;;;;;;;;;;5105585;28;20034;-73
2022/06/20 03:03:47;;;;;;;3.67;1.33;;;;;;;;;;5098976;27;20024;-73
2022/06/20 03:06:23;;;;;;;5.43;1.17;;;;;;;;;;5105363;28;20024;-75
2022/06/20 03:08:48;;;;;;;7.05;1.25;;;;;;;;;;5097170;27;20100;-75
2022/06/20 03:11:14;;;;;;;4.20;1.20;;;;;;;;;;5098862;27;20077;-73
2022/06/20 03:13:41;;;;;;;3.15;1.25;;;;;;;;;;5100753;27;20019;-73
2022/06/20 03:16:07;;;;;;;3.50;1.08;;;;;;;;;;5104770;27;20035;-74
2022/06/20 03:18:39;;;;;;;2.92;1.10;;;;;;;;;;5105158;27;20027;-74
2022/06/20 03:21:05;;;;;;;3.42;1.15;;;;;;;;;;5101888;27;20019;-75
2022/06/20 03:23:33;;;;;;;3.50;1.02;;;;;;;;;;5104053;27;20391;-74
2022/06/20 03:26:01;;;;;;;5.75;1.10;;;;;;;;;;5106741;28;20042;-76
2022/06/20 03:28:29;;;;;;;3.60;1.10;;;;;;;;;;5104359;28;20031;-74
2022/06/20 03:30:58;;;;;;;3.00;1.10;;;;;;;;;;5103440;27;20024;-75
2022/06/20 03:33:23;;;;;;;4.13;1.20;;;;;;;;;;5103646;27;20042;-75
2022/06/20 03:35:58;;;;;;;3.97;1.10;;;;;;;;;;5103675;27;20020;-73
2022/06/20 03:38:24;;;;;;;3.60;1.27;;;;;;;;;;5101238;28;20169;-75
2022/06/20 03:40:50;;;;;;;4.15;1.13;;;;;;;;;;5101698;28;20038;-76
2022/06/20 03:43:19;;;;;;;4.38;1.35;;;;;;;;;;5100523;27;20023;-74
2022/06/20 03:46:01;;;;;;;2.00;0.82;;;;;;;;;;5096292;27;20408;-75
2022/06/20 03:48:36;;;;;;;3.90;1.10;;;;;;;;;;5105531;27;20080;-73
2022/06/20 03:51:11;;;;;;;3.70;1.00;;;;;;;;;;5105020;27;20023;-74
2022/06/20 03:53:44;;;;;;;5.57;1.02;;;;;;;;;;5099228;27;20055;-75
2022/06/20 03:56:39;;;;;;;2.80;0.98;;;;;;;;;;5101763;27;20023;-76
2022/06/20 03:59:14;;;;;;;4.00;1.20;;;;;;;;;;5118899;27;20027;-73
2022/06/20 04:01:48;;;;;;;3.58;1.20;;;;;;;;;;5105439;28;20121;-74
2022/06/20 04:04:31;;;;;;;4.53;1.00;;;;;;;;;;5107642;27;20028;-75
2022/06/20 04:07:02;;;;;;;4.40;0.90;;;;;;;;;;5101912;28;20073;-76
2022/06/20 04:13:07;;;;;;;3.22;1.20;;;;;;;;;;5067107;28;20497;-74
2022/06/20 04:16:01;;;;;;;4.05;0.95;;;;;;;;;;5056872;28;20067;-74
2022/06/20 04:18:48;;;;;;;5.47;1.33;;;;;;;;;;5089556;27;20040;-75
2022/06/20 04:21:23;;;;;;;3.08;1.00;;;;;;;;;;5117825;27;20058;-74
2022/06/20 04:24:10;;;;;;;4.60;1.10;;;;;;;;;;5100429;28;20148;-76
2022/06/20 04:26:42;;;;;;;4.43;1.00;;;;;;;;;;5103842;27;20061;-74
2022/06/20 04:29:31;;;;;;;3.63;1.30;;;;;;;;;;5103358;28;20102;-75
2022/06/20 04:32:18;;;;;;;3.30;1.00;;;;;;;;;;5083726;28;20040;-73
2022/06/20 04:34:48;;;;;;;2.92;1.02;;;;;;;;;;5105349;28;20506;-75
2022/06/20 04:37:22;;;;;;;4.40;1.10;;;;;;;;;;5101891;27;20314;-74
2022/06/20 04:40:16;;;;;;;4.50;1.10;;;;;;;;;;5096161;27;20032;-76
2022/06/20 04:42:44;;;;;;;5.25;1.42;;;;;;;;;;5102148;28;20035;-75
2022/06/20 04:45:21;;;;;;;2.38;1.00;;;;;;;;;;5101609;27;20028;-77
2022/06/20 04:47:54;;;;;;;5.30;1.40;;;;;;;;;;5098310;28;20960;-76
2022/06/20 04:50:23;;;;;;;3.80;1.30;;;;;;;;;;5103980;28;20063;-76
2022/06/20 04:52:52;;;;;;;4.13;1.40;;;;;;;;;;5104902;28;20077;-76
2022/06/20 04:55:22;;;;;;;3.53;1.40;;;;;;;;;;5097496;28;20485;-75
2022/06/20 04:57:52;;;;;;;5.07;1.95;;;;;;;;;;5100758;28;20028;-76
2022/06/20 05:00:20;;;;;;;3.95;1.20;;;;;;;;;;5098488;28;20027;-75
2022/06/20 05:02:48;;;;;;;5.00;2.00;;;;;;;;;;5098854;28;20122;-76
2022/06/20 05:05:20;;;;;;;3.03;1.20;;;;;;;;;;5100457;28;20040;-76
2022/06/20 05:07:47;;;;;;;2.88;1.38;;;;;;;;;;5099882;28;20023;-74
2022/06/20 05:10:36;;;;;;;3.53;1.30;;;;;;;;;;5099802;28;20451;-75
2022/06/20 05:13:15;;;;;;;4.13;1.40;;;;;;;;;;5109541;27;20056;-75
2022/06/20 05:15:46;;;;;;;3.15;1.20;;;;;;;;;;5100198;28;20065;-76
2022/06/20 05:18:21;;;;;;;5.55;1.40;;;;;;;;;;5101679;28;20078;-73
2022/06/20 05:20:47;;;;;;;4.30;1.20;;;;;;;;;;5094690;28;20055;-76
2022/06/20 05:23:35;;;;;;;1.80;0.90;;;;;;;;;;5105668;28;20032;-73
2022/06/20 05:26:03;;;;;;;4.55;1.50;;;;;;;;;;5094061;28;20172;-73
2022/06/20 05:28:32;;;;;;;3.10;1.25;;;;;;;;;;5100277;28;20035;-74
2022/06/20 05:30:59;;;;;;;4.45;1.50;;;;;;;;;;5103156;28;20030;-74
2022/06/20 05:33:28;;;;;;;3.65;1.40;;;;;;;;;;5101428;28;20112;-75
2022/06/20 05:35:57;;;;;;;3.78;1.70;;;;;;;;;;5099442;28;20023;-76
2022/06/20 05:38:34;;;;;;;3.88;1.58;;;;;;;;;;5100257;28;20047;-75
2022/06/20 05:41:01;;;;;;;1.65;1.10;;;;;;;;;;5098873;28;20251;-76
2022/06/20 05:43:29;;;;;;;3.83;1.30;;;;;;;;;;5100586;28;20032;-74
2022/06/20 05:45:59;;;;;;;5.47;1.40;;;;;;;;;;5098335;28;20043;-73
2022/06/20 05:48:33;;;;;;;1.85;1.10;;;;;;;;;;5097752;28;21428;-74
2022/06/20 05:51:05;;;;;;;5.22;2.08;;;;;;;;;;5097522;28;20055;-76
2022/06/20 05:53:36;;;;;;;4.07;1.35;;;;;;;;;;5099475;28;20019;-77
2022/06/20 05:56:05;;;;;;;3.80;1.20;;;;;;;;;;5099637;28;20031;-76
2022/06/20 05:58:34;;;;;;;3.30;1.17;;;;;;;;;;5105644;28;20032;-75
2022/06/20 06:01:03;;;;;;;4.70;1.17;;;;;;;;;;5100221;28;20063;-76
2022/06/20 06:03:37;;;;;;;3.90;1.35;;;;;;;;;;5097562;28;20028;-75
2022/06/20 06:06:10;;;;;;;4.50;1.38;;;;;;;;;;5100931;28;20510;-76
2022/06/20 06:08:49;;;;;;;3.45;1.55;;;;;;;;;;5099940;28;20023;-76
2022/06/20 06:11:35;;;;;;;3.72;1.50;;;;;;;;;;5099873;28;20063;-76
2022/06/20 06:14:14;;;;;;;4.68;1.38;;;;;;;;;;5111648;28;20032;-75
2022/06/20 06:16:50;;;;;;;3.97;1.50;;;;;;;;;;5097607;28;20020;-76
2022/06/20 06:19:27;;;;;;;5.20;1.63;;;;;;;;;;5094623;28;20031;-75
2022/06/20 06:21:54;;;;;;;2.38;1.30;;;;;;;;;;5101412;28;20076;-76
2022/06/20 06:24:23;;;;;;;4.22;1.70;;;;;;;;;;5097310;28;20749;-75
2022/06/20 06:26:52;;;;;;;2.97;1.63;;;;;;;;;;5102499;28;21136;-75
2022/06/20 06:29:22;;;;;;;3.58;1.17;;;;;;;;;;5090447;28;20154;-75
2022/06/20 06:31:52;;;;;;;3.97;1.50;;;;;;;;;;5105493;28;20542;-74
2022/06/20 06:34:20;;;;;;;2.40;1.25;;;;;;;;;;5105695;28;20028;-74
2022/06/20 06:37:01;;;;;;;3.92;1.83;;;;;;;;;;5106690;28;20023;-73
2022/06/20 06:39:40;;;;;;;2.42;1.20;;;;;;;;;;5102294;28;20040;-74
2022/06/20 06:42:12;;;;;;;5.50;1.75;;;;;;;;;;5104563;27;20055;-76
2022/06/20 06:44:47;;;;;;;4.60;1.60;;;;;;;;;;5108906;28;20114;-76
2022/06/20 06:47:26;;;;;;;4.70;1.60;;;;;;;;;;5108210;27;20024;-76
2022/06/20 06:49:58;;;;;;;5.97;1.58;;;;;;;;;;5101161;27;20073;-73
2022/06/20 06:52:28;;;;;;;3.33;1.40;;;;;;;;;;5107075;28;20063;-76
2022/06/20 06:55:17;;;;;;;3.90;1.90;;;;;;;;;;5101198;28;20024;-76
2022/06/20 06:57:47;;;;;;;4.65;1.45;;;;;;;;;;5107486;27;20147;-76
2022/06/20 07:00:23;;;;;;;3.65;1.50;;;;;;;;;;5101807;27;20032;-72
2022/06/20 07:02:56;;;;;;;3.22;1.70;;;;;;;;;;5106109;28;20059;-76
2022/06/20 07:05:28;;;;;;;4.72;2.00;;;;;;;;;;5103502;27;20020;-76
2022/06/20 07:08:19;;;;;;;4.03;1.73;;;;;;;;;;5111310;27;20035;-74
2022/06/20 07:10:52;;;;;;;5.75;2.05;;;;;;;;;;5105216;28;20115;-75
2022/06/20 07:13:21;;;;;;;5.88;2.40;;;;;;;;;;5104174;27;20027;-73
2022/06/20 07:15:51;;;;;;;3.80;1.65;;;;;;;;;;5106473;28;20384;-75
2022/06/20 07:18:48;;;;;;;3.33;1.60;;;;;;;;;;5101902;27;20364;-73
2022/06/20 07:21:18;;;;;;;6.63;1.67;;;;;;;;;;5108139;28;20024;-73
2022/06/20 07:23:48;;;;;;;4.78;1.77;;;;;;;;;;5108426;28;20039;-73
2022/06/20 07:26:16;;;;;;;4.35;2.20;;;;;;;;;;5103460;28;20400;-74
2022/06/20 07:28:52;;;;;;;4.88;2.28;;;;;;;;;;5104096;27;20103;-76
2022/06/20 07:31:22;;;;;;;4.00;1.80;;;;;;;;;;5107017;28;20114;-76
2022/06/20 07:34:00;;;;;;;4.22;1.80;;;;;;;;;;5107046;27;20531;-76
2022/06/20 07:36:31;;;;;;;2.58;1.63;;;;;;;;;;5105994;28;20028;-73
2022/06/20 07:39:04;;;;;;;5.32;1.63;;;;;;;;;;5099804;28;20747;-76
2022/06/20 07:41:54;;;;;;;4.40;1.80;;;;;;;;;;5105625;28;20030;-75
2022/06/20 07:44:31;;;;;;;4.80;1.80;;;;;;;;;;5096887;27;20030;-74
2022/06/20 07:47:08;;;;;;;4.35;1.80;;;;;;;;;;5104897;27;20031;-74
2022/06/20 07:49:44;;;;;;;4.45;1.85;;;;;;;;;;5105618;28;20391;-75
2022/06/20 07:52:44;;;;;;;5.18;1.90;;;;;;;;;;5104386;28;20031;-74
2022/06/20 07:55:14;;;;;;;3.22;1.60;;;;;;;;;;5075882;28;20032;-75
2022/06/20 07:57:46;;;;;;;3.95;1.65;;;;;;;;;;5109183;28;20027;-74
2022/06/20 08:00:17;;;;;;;5.22;1.83;;;;;;;;;;5115272;27;20111;-75
2022/06/20 08:02:55;;;;;;;4.65;1.70;;;;;;;;;;5103519;28;20035;-75
2022/06/20 08:05:29;;;;;;;5.47;1.70;;;;;;;;;;5108162;28;20066;-73
2022/06/20 08:08:03;;;;;;;6.72;1.73;;;;;;;;;;5100567;28;20091;-74
2022/06/20 08:10:36;;;;;;;4.45;1.80;;;;;;;;;;5103471;28;20026;-75
2022/06/20 08:13:27;;;;;;;5.57;1.60;;;;;;;;;;5107767;28;20030;-75
2022/06/20 08:15:59;;;;;;;4.35;1.83;;;;;;;;;;5108189;28;20387;-73
2022/06/20 08:18:25;;;;;;;3.40;1.55;;;;;;;;;;5107755;28;20031;-74
2022/06/20 08:20:58;;;;;;;6.15;1.98;;;;;;;;;;5106801;28;20031;-75
2022/06/20 08:23:26;;;;;;;;;;;;;;;;;;5109830;28;20035;-75
2022/06/20 08:26:01;;;;;;;6.30;1.80;;;;;;;;;;5103753;28;20294;-75
2022/06/20 08:28:53;;;;;;;3.08;1.17;;;;;;;;;;5102922;28;20722;-73
2022/06/20 08:31:21;;;;;;;4.25;1.48;;;;;;;;;;5087556;28;20044;-73
2022/06/20 08:33:53;;;;;;;4.65;1.50;;;;;;;;;;5104389;28;20027;-75
2022/06/20 08:36:42;;;;;;;3.78;1.60;;;;;;;;;;5107735;28;20027;-75
2022/06/20 08:39:19;;;;;;;3.55;1.70;;;;;;;;;;5097107;28;20189;-75
2022/06/20 08:42:06;;;;;;;3.60;1.52;;;;;;;;;;5103788;28;20035;-74
2022/06/20 08:45:03;;;;;;;3.63;1.65;;;;;;;;;;5104415;28;20483;-75
2022/06/20 08:47:44;;;;;;;5.32;1.70;;;;;;;;;;5106837;28;20023;-75
2022/06/20 08:50:30;;;;;;;4.88;2.10;;;;;;;;;;5103812;28;20032;-73
2022/06/20 08:53:33;;;;;;;4.65;2.10;;;;;;;;;;5117401;27;20055;-75
2022/06/20 08:56:05;;;;;;;4.47;1.55;;;;;;;;;;5108397;28;20051;-74
2022/06/20 08:58:45;;;;;;;6.28;1.60;;;;;;;;;;5097122;28;20039;-75
2022/06/20 09:01:30;;;;;;;6.25;2.20;;;;;;;;;;5102909;28;20124;-73
2022/06/20 09:04:25;;;;;;;5.60;1.70;;;;;;;;;;5104168;28;20031;-73
2022/06/20 09:07:25;;;;;;;5.03;1.80;;;;;;;;;;5101964;28;20051;-74
2022/06/20 09:10:36;;;;;;;2.90;1.63;;;;;;;;;;5098962;28;20027;-73
2022/06/20 09:13:30;;;;;;;4.07;1.60;;;;;;;;;;5044527;28;20580;-76
2022/06/20 09:16:27;;;;;;;;;;;;;;;;;;5102638;28;20124;-73
2022/06/20 09:19:15;;;;;;;3.95;1.80;;;;;;;;;;5080453;28;20041;-74
2022/06/20 09:22:07;;;;;;;4.28;1.98;;;;;;;;;;5111307;28;20046;-74
2022/06/20 09:24:51;;;;;;;7.35;2.10;;;;;;;;;;5106591;28;20039;-75
2022/06/20 09:27:33;;;;;;;4.38;1.90;;;;;;;;;;5103781;28;20111;-75
2022/06/20 09:30:11;;;;;;;5.63;1.80;;;;;;;;;;5101769;28;20019;-75
2022/06/20 09:32:52;;;;;;;5.72;1.90;;;;;;;;;;5106112;28;20031;-75
2022/06/20 09:35:44;;;;;;;4.13;1.50;;;;;;;;;;5100487;28;20495;-74
2022/06/20 09:38:21;;;;;;;4.28;1.45;;;;;;;;;;5104790;28;20074;-74
2022/06/20 09:40:55;;;;;;;4.55;1.67;;;;;;;;;;5101415;28;20133;-75
2022/06/20 09:43:29;;;;;;;3.63;1.70;;;;;;;;;;5101863;28;20467;-72
2022/06/20 09:46:25;;;;;;;5.03;1.75;;;;;;;;;;5105193;28;20028;-74
2022/06/20 09:49:20;;;;;;;5.03;1.75;;;;;;;;;;5107983;28;20062;-75
2022/06/20 09:52:19;;;;;;;4.55;1.50;;;;;;;;;;5101730;28;20108;-75
2022/06/20 09:55:10;;;;;;;6.45;1.70;;;;;;;;;;5116164;28;20081;-75
2022/06/20 09:57:50;;;;;;;5.68;2.00;;;;;;;;;;5101897;28;20028;-74
2022/06/20 10:00:29;;;;;;;5.45;1.73;;;;;;;;;;5102707;28;20023;-74
2022/06/20 10:03:18;;;;;;;4.78;1.90;;;;;;;;;;5098571;28;20019;-73
2022/06/20 10:05:57;;;;;;;6.80;1.95;;;;;;;;;;5102059;28;20028;-75
2022/06/20 10:08:23;;;;;;;4.97;1.80;;;;;;;;;;5106287;28;20119;-74
2022/06/20 10:11:03;;;;;;;4.80;2.45;;;;;;;;;;5106485;28;20107;-74
2022/06/20 10:13:43;;;;;;;3.83;1.50;;;;;;;;;;5108215;28;20027;-74
2022/06/20 10:16:17;;;;;;;6.88;1.65;;;;;;;;;;5108293;28;20023;-74
2022/06/20 10:18:58;;;;;;;4.53;1.67;;;;;;;;;;5104491;28;20031;-72
2022/06/20 10:21:31;;;;;;;4.47;1.77;;;;;;;;;;5105120;28;20043;-72
2022/06/20 10:24:07;;;;;;;5.80;1.70;;;;;;;;;;5116488;27;20084;-75
2022/06/20 10:27:08;;;;;;;5.72;1.70;;;;;;;;;;5109216;28;20408;-75
2022/06/20 10:29:59;;;;;;;4.90;1.70;;;;;;;;;;5078679;28;20032;-75
2022/06/20 10:32:43;;;;;;;4.88;1.70;;;;;;;;;;5107090;28;20167;-75
2022/06/20 10:35:18;;;;;;;5.38;1.60;;;;;;;;;;5106376;28;20027;-74
2022/06/20 10:38:20;;;;;;;6.38;1.80;;;;;;;;;;5108262;28;20031;-74
2022/06/20 10:40:55;;;;;;;6.00;2.15;;;;;;;;;;5106183;28;20028;-74
2022/06/20 10:43:35;;;;;;;5.60;1.70;;;;;;;;;;5107879;27;20023;-74
2022/06/20 10:46:04;;;;;;;4.47;1.45;;;;;;;;;;5108827;27;20110;-76
2022/06/20 10:49:20;;;;;;;4.43;1.30;;;;;;;;;;5104540;28;20034;-76
2022/06/20 10:51:52;;;;;;;5.80;1.65;;;;;;;;;;5072669;28;20059;-74
2022/06/20 10:54:36;;;;;;;4.82;1.75;;;;;;;;;;5107768;28;20396;-75
2022/06/20 10:57:23;;;;;;;7.60;2.00;;;;;;;;;;5103771;27;20054;-76
2022/06/20 11:00:13;;;;;;;3.55;1.50;;;;;;;;;;5108851;28;20415;-74
2022/06/20 11:02:56;;;;;;;4.63;1.30;;;;;;;;;;5116912;27;20531;-76
2022/06/20 11:05:39;;;;;;;4.38;1.52;;;;;;;;;;5110523;28;20502;-74
2022/06/20 11:08:38;;;;;;;5.22;1.35;;;;;;;;;;5105718;27;20028;-76
2022/06/20 11:11:40;;;;;;;4.28;1.40;;;;;;;;;;5100454;27;20023;-74
2022/06/20 11:14:24;;;;;;;3.90;1.00;;;;;;;;;;5103002;28;20046;-76
2022/06/20 11:16:58;;;;;;;3.28;1.20;;;;;;;;;;5104137;28;20035;-74
2022/06/20 11:19:40;;;;;;;3.33;1.33;;;;;;;;;;5105602;28;20431;-76
2022/06/20 11:22:22;;;;;;;3.50;1.10;;;;;;;;;;5106317;28;20084;-74
2022/06/20 11:25:02;;;;;;;2.15;1.00;;;;;;;;;;5104201;28;20024;-76
2022/06/20 11:27:53;;;;;;;2.42;1.00;;;;;;;;;;5103818;28;20786;-76
2022/06/20 11:30:23;;;;;;;2.58;1.05;;;;;;;;;;5106265;28;20062;-75
2022/06/20 11:34:00;;;;;;;1.90;1.10;;;;;;;;;;5104731;28;20032;-75
2022/06/20 11:36:12;;;;;;;3.92;1.10;;;;;;;;;;5107434;28;20028;-76
2022/06/20 11:39:12;;;;;;;3.58;1.35;;;;;;;;;;5104510;27;20041;-75
2022/06/20 11:42:05;;;;;;;3.40;1.05;;;;;;;;;;5083038;28;20047;-75
2022/06/20 11:44:36;;;;;;;2.42;1.20;;;;;;;;;;5101679;28;20019;-76
2022/06/20 11:47:07;;;;;;;4.28;1.48;;;;;;;;;;5103079;28;20028;-74
2022/06/20 11:49:44;;;;;;;3.00;1.20;;;;;;;;;;5106345;27;20151;-74
2022/06/20 11:52:23;;;;;;;5.10;1.60;;;;;;;;;;5102727;27;20089;-74
2022/06/20 11:55:00;;;;;;;1.85;1.13;;;;;;;;;;5105204;28;20032;-76
2022/06/20 11:57:32;;;;;;;4.53;1.45;;;;;;;;;;5099186;27;20039;-74
2022/06/20 12:00:09;;;;;;;3.50;1.42;;;;;;;;;;5119874;27;20023;-75
2022/06/20 12:02:46;;;;;;;3.35;1.23;;;;;;;;;;5104259;28;20132;-76
2022/06/20 12:05:18;;;;;;;3.67;1.48;;;;;;;;;;5102579;28;20032;-76
2022/06/20 12:07:47;;;;;;;5.05;1.70;;;;;;;;;;5107781;28;20110;-75
2022/06/20 12:10:21;;;;;;;5.18;1.65;;;;;;;;;;5106763;28;20020;-75
2022/06/20 12:13:16;;;;;;;3.85;1.40;;;;;;;;;;5105054;28;20468;-76
2022/06/20 12:15:44;;;;;;;7.47;1.85;;;;;;;;;;5097406;28;20102;-75
2022/06/20 12:18:35;;;;;;;4.82;1.70;;;;;;;;;;5104465;28;20443;-74
2022/06/20 12:23:56;;;;;;;5.00;1.50;;;;;;;;;;5101688;28;20107;-74
2022/06/20 12:26:29;;;;;;;2.53;1.30;;;;;;;;;;5105970;28;20047;-76
2022/06/20 12:28:56;;;;;;;2.30;1.60;;;;;;;;;;5104877;27;20151;-77
2022/06/20 12:31:35;;;;;;;5.15;1.80;;;;;;;;;;5103086;28;20395;-74
2022/06/20 12:34:27;;;;;;;6.40;1.92;;;;;;;;;;5106939;28;20098;-76
2022/06/20 12:37:02;;;;;;;6.07;1.50;;;;;;;;;;5099644;28;20034;-76
2022/06/20 12:39:33;;;;;;;6.68;1.90;;;;;;;;;;5106687;28;20050;-77
2022/06/20 12:42:22;;;;;;;4.80;1.50;;;;;;;;;;5109021;28;20035;-77
2022/06/20 12:45:28;;;;;;;5.00;1.80;;;;;;;;;;5100779;28;20436;-77
2022/06/20 12:48:14;;;;;;;4.47;1.58;;;;;;;;;;5075363;28;20036;-76
2022/06/20 12:50:50;;;;;;;3.42;1.40;;;;;;;;;;5107159;28;20088;-77
2022/06/20 12:53:51;;;;;;;3.88;1.45;;;;;;;;;;5103500;28;20505;-74
2022/06/20 12:56:59;;;;;;;4.82;1.45;;;;;;;;;;5102815;28;20035;-76
2022/06/20 13:00:02;;;;;;;4.88;1.65;;;;;;;;;;5055125;28;20479;-75
2022/06/20 13:02:55;;;;;;;3.30;1.30;;;;;;;;;;5107867;28;20523;-75
2022/06/20 13:05:38;;;;;;;5.13;1.65;;;;;;;;;;5101763;28;20024;-75
2022/06/20 13:08:40;;;;;;;7.03;1.80;;;;;;;;;;5102396;27;20042;-77
2022/06/20 13:11:18;;;;;;;5.53;1.73;;;;;;;;;;5100018;28;20027;-76
2022/06/20 13:13:55;;;;;;;4.97;1.70;;;;;;;;;;5106450;28;20695;-75
2022/06/20 13:16:53;;;;;;;5.47;1.75;;;;;;;;;;5117431;27;20055;-77
2022/06/20 13:19:36;;;;;;;4.13;1.63;;;;;;;;;;5106170;28;20027;-75
2022/06/20 13:22:40;;;;;;;3.55;1.40;;;;;;;;;;5107638;28;20077;-76
2022/06/20 13:25:36;;;;;;;3.63;1.40;;;;;;;;;;5109031;28;20081;-75
2022/06/20 13:28:26;;;;;;;5.28;1.63;;;;;;;;;;5103095;28;20020;-75
2022/06/20 13:31:09;;;;;;;2.83;1.20;;;;;;;;;;5106733;28;20375;-77
2022/06/20 13:33:53;;;;;;;4.38;1.52;;;;;;;;;;5103338;28;20026;-77
2022/06/20 13:36:49;;;;;;;5.60;1.85;;;;;;;;;;5105655;28;20069;-75
2022/06/20 13:39:44;;;;;;;3.97;1.40;;;;;;;;;;5096382;28;20500;-75
2022/06/20 13:42:25;;;;;;;4.05;1.73;;;;;;;;;;5122649;27;20035;-78
2022/06/20 13:45:02;;;;;;;3.90;1.48;;;;;;;;;;5102360;27;20056;-74
2022/06/20 13:47:29;;;;;;;5.57;1.90;;;;;;;;;;5107712;28;20020;-74
2022/06/20 13:50:28;;;;;;;4.40;1.95;;;;;;;;;;5109979;27;20022;-74
2022/06/20 13:53:28;;;;;;;3.60;1.45;;;;;;;;;;5104720;27;20492;-74
2022/06/20 13:56:02;;;;;;;3.35;1.55;;;;;;;;;;5102667;28;20383;-74
2022/06/20 13:58:42;;;;;;;5.82;2.10;;;;;;;;;;5103694;28;20032;-75
2022/06/20 14:01:12;;;;;;;4.32;1.63;;;;;;;;;;5101807;27;20085;-74
2022/06/20 14:03:47;;;;;;;4.47;1.67;;;;;;;;;;5108612;28;20042;-75
2022/06/20 14:06:16;;;;;;;5.32;1.70;;;;;;;;;;5108112;28;20037;-78
2022/06/20 14:08:54;;;;;;;6.30;1.67;;;;;;;;;;5111367;28;20063;-75
2022/06/20 14:11:39;;;;;;;4.20;1.88;;;;;;;;;;5105528;28;20115;-78
2022/06/20 14:14:05;;;;;;;5.55;1.70;;;;;;;;;;5105485;28;20027;-76
2022/06/20 14:16:35;;;;;;;5.60;1.80;;;;;;;;;;5109354;28;20026;-76
2022/06/20 14:19:12;;;;;;;3.47;1.60;;;;;;;;;;5093459;27;20027;-77
2022/06/20 14:21:41;;;;;;;4.68;1.60;;;;;;;;;;5106117;28;20020;-77
2022/06/20 14:24:19;;;;;;;6.35;1.52;;;;;;;;;;5103921;28;20390;-75
2022/06/20 14:26:45;;;;;;;4.80;1.60;;;;;;;;;;5110123;28;21323;-75
2022/06/20 14:29:20;;;;;;;5.22;1.60;;;;;;;;;;5104976;28;20020;-77
2022/06/20 14:31:56;;;;;;;2.90;1.55;;;;;;;;;;5104600;28;20039;-74
2022/06/20 14:34:28;;;;;;;6.10;1.70;;;;;;;;;;5118410;27;20468;-75
2022/06/20 14:37:12;;;;;;;3.30;1.80;;;;;;;;;;5107230;28;20027;-77
2022/06/20 14:39:44;;;;;;;3.05;1.52;;;;;;;;;;5103962;27;20115;-77
2022/06/20 14:42:13;;;;;;;4.28;1.70;;;;;;;;;;5104403;28;20028;-76
2022/06/20 14:44:57;;;;;;;4.28;1.52;;;;;;;;;;5101474;27;20024;-76
2022/06/20 14:47:51;;;;;;;4.75;1.58;;;;;;;;;;5102906;28;20062;-74
2022/06/20 14:50:25;;;;;;;5.30;1.70;;;;;;;;;;5102702;27;20080;-76
2022/06/20 14:52:58;;;;;;;3.78;1.50;;;;;;;;;;5118503;27;20093;-75
2022/06/20 14:55:43;;;;;;;3.75;1.67;;;;;;;;;;5106753;28;20433;-74
2022/06/20 14:58:22;;;;;;;4.72;1.55;;;;;;;;;;5106314;28;20454;-76
2022/06/20 15:00:50;;;;;;;4.43;1.83;;;;;;;;;;5110807;28;20028;-75
2022/06/20 15:03:23;;;;;;;4.90;1.73;;;;;;;;;;5111273;27;20038;-75
2022/06/20 15:05:57;;;;;;;3.17;1.50;;;;;;;;;;5105529;28;20155;-75
2022/06/20 15:08:30;;;;;;;6.32;1.98;;;;;;;;;;5101697;28;20031;-76
2022/06/20 15:11:06;;;;;;;5.80;1.90;;;;;;;;;;5104064;28;20028;-77
2022/06/20 15:14:09;;;;;;;6.55;2.10;;;;;;;;;;5100007;27;20026;-77
2022/06/20 15:16:44;;;;;;;7.57;2.88;;;;;;;;;;5092707;28;20111;-76
2022/06/20 15:19:19;;;;;;;5.15;1.95;;;;;;;;;;5102365;28;20027;-75
2022/06/20 15:21:47;;;;;;;5.20;1.73;;;;;;;;;;5106381;28;20073;-78
2022/06/20 15:24:41;;;;;;;4.32;1.80;;;;;;;;;;5107168;28;20128;-74
2022/06/20 15:27:22;;;;;;;8.60;2.30;;;;;;;;;;5101883;28;20939;-76
2022/06/20 15:30:02;;;;;;;5.60;1.77;;;;;;;;;;5103626;28;20035;-78
2022/06/20 15:32:43;;;;;;;7.43;2.00;;;;;;;;;;5093955;28;20042;-77
2022/06/20 15:35:15;;;;;;;5.05;1.70;;;;;;;;;;5093686;27;20108;-75
2022/06/20 15:37:42;;;;;;;7.80;2.08;;;;;;;;;;5090430;27;20064;-76
2022/06/20 15:40:21;;;;;;;7.07;1.90;;;;;;;;;;5091792;27;20035;-76
2022/06/20 15:43:00;;;;;;;4.22;1.92;;;;;;;;;;5091144;27;20150;-76
2022/06/20 15:45:29;;;;;;;4.35;1.85;;;;;;;;;;5097340;27;20368;-77
2022/06/20 15:48:05;;;;;;;5.20;1.70;;;;;;;;;;5103143;28;20031;-76
2022/06/20 15:50:41;;;;;;;3.80;1.80;;;;;;;;;;5103499;27;20032;-78
2022/06/20 15:53:29;;;;;;;6.47;2.15;;;;;;;;;;5101357;28;20039;-78